createdAt,value
2022-11-14T00:00:00.546Z,24.08
2022-11-14T00:02:48.942Z,22.75
2022-11-14T00:05:41.644Z,23.00
2022-11-14T00:08:30.145Z,23.38
2022-11-14T00:11:18.767Z,23.70
2022-11-14T00:14:08.522Z,25.73
2022-11-14T00:16:56.866Z,24.02
2022-11-14T00:19:45.364Z,23.95
2022-11-14T00:22:33.882Z,25.08
2022-11-14T00:25:22.215Z,24.50
2022-11-14T00:28:10.572Z,25.23
2022-11-14T00:31:00.254Z,25.35
2022-11-14T00:33:49.208Z,25.40
2022-11-14T00:36:37.906Z,26.40
2022-11-14T00:39:26.386Z,26.70
2022-11-14T00:42:14.750Z,25.95
2022-11-14T00:45:03.048Z,24.83
2022-11-14T00:47:52.841Z,25.17
2022-11-14T00:50:41.419Z,25.27
2022-11-14T00:53:29.771Z,26.55
2022-11-14T00:56:18.143Z,25.75
2022-11-14T00:59:06.584Z,25.23
2022-11-14T01:01:57.901Z,26.67
2022-11-14T01:04:47.876Z,28.33
2022-11-14T01:07:36.267Z,27.48
2022-11-14T01:10:24.823Z,30.73
2022-11-14T01:13:13.637Z,28.85
2022-11-14T01:16:02.837Z,29.73
2022-11-14T01:18:51.200Z,29.80
2022-11-14T01:21:40.954Z,27.67
2022-11-14T01:24:29.433Z,29.45
2022-11-14T01:27:17.992Z,29.45
2022-11-14T01:30:07.417Z,30.00
2022-11-14T01:32:55.752Z,28.75
2022-11-14T01:35:44.107Z,32.15
2022-11-14T01:38:34.107Z,28.75
2022-11-14T01:41:22.778Z,30.38
2022-11-14T01:44:15.170Z,30.73
2022-11-14T01:47:03.508Z,29.83
2022-11-14T01:49:54.723Z,30.60
2022-11-14T01:55:33.553Z,29.88
2022-11-14T01:58:24.265Z,30.70
2022-11-14T02:01:12.692Z,31.65
2022-11-14T02:04:05.344Z,30.75
2022-11-14T02:06:58.792Z,32.58
2022-11-14T02:09:49.459Z,32.15
2022-11-14T02:12:39.565Z,30.40
2022-11-14T02:15:28.032Z,30.38
2022-11-14T02:18:16.376Z,32.30
2022-11-14T02:21:06.379Z,29.95
2022-11-14T02:23:54.711Z,29.95
2022-11-14T02:26:44.457Z,31.27
2022-11-14T02:29:34.175Z,29.40
2022-11-14T02:32:22.516Z,30.90
2022-11-14T02:35:11.158Z,29.08
2022-11-14T02:38:00.861Z,30.63
2022-11-14T02:40:49.195Z,30.15
2022-11-14T02:43:37.781Z,31.05
2022-11-14T02:46:26.138Z,30.52
2022-11-14T02:49:14.430Z,29.60
2022-11-14T02:52:02.798Z,28.73
2022-11-14T02:54:54.682Z,29.20
2022-11-14T02:57:43.218Z,29.83
2022-11-14T03:00:31.681Z,29.65
2022-11-14T03:03:20.056Z,29.55
2022-11-14T03:06:08.477Z,28.42
2022-11-14T03:08:56.786Z,29.92
2022-11-14T03:11:46.461Z,29.88
2022-11-14T03:14:34.823Z,31.10
2022-11-14T03:17:24.585Z,32.22
2022-11-14T03:20:12.954Z,32.63
2022-11-14T03:23:01.234Z,33.28
2022-11-14T03:25:49.544Z,33.67
2022-11-14T03:28:39.810Z,32.58
2022-11-14T03:31:28.118Z,32.53
2022-11-14T03:34:16.460Z,32.80
2022-11-14T03:37:04.809Z,32.90
2022-11-14T03:39:53.144Z,32.38
2022-11-14T03:42:41.488Z,34.95
2022-11-14T03:45:31.205Z,31.23
2022-11-14T03:48:19.504Z,34.35
2022-11-14T03:51:07.880Z,33.17
2022-11-14T03:53:56.217Z,33.60
2022-11-14T03:56:44.568Z,32.08
2022-11-14T03:59:33.008Z,32.00
2022-11-14T04:02:23.137Z,31.63
2022-11-14T04:05:11.535Z,31.02
2022-11-14T04:07:59.900Z,32.33
2022-11-14T04:10:48.813Z,31.75
2022-11-14T04:13:37.146Z,32.55
2022-11-14T04:16:25.614Z,32.38
2022-11-14T04:19:15.277Z,31.15
2022-11-14T04:22:03.699Z,32.22
2022-11-14T04:24:51.983Z,30.80
2022-11-14T04:27:40.362Z,30.27
2022-11-14T04:30:34.427Z,41.67
2022-11-14T04:33:23.114Z,33.95
2022-11-14T04:36:12.891Z,33.67
2022-11-14T04:39:01.320Z,32.22
2022-11-14T04:41:49.653Z,31.63
2022-11-14T04:44:37.955Z,33.00
2022-11-14T04:47:26.354Z,31.73
2022-11-14T04:50:15.138Z,32.45
2022-11-14T04:53:05.182Z,32.95
2022-11-14T04:55:54.249Z,30.48
2022-11-14T04:58:42.550Z,32.25
2022-11-14T05:01:30.928Z,31.58
2022-11-14T05:04:19.728Z,31.17
2022-11-14T05:07:08.093Z,32.33
2022-11-14T05:09:57.810Z,32.10
2022-11-14T05:12:46.152Z,30.88
2022-11-14T05:15:34.468Z,33.22
2022-11-14T05:18:22.778Z,31.25
2022-11-14T05:21:13.586Z,32.50
2022-11-14T05:24:01.924Z,31.60
2022-11-14T05:26:51.640Z,33.63
2022-11-14T05:29:40.008Z,32.15
2022-11-14T05:32:28.287Z,35.42
2022-11-14T05:35:16.674Z,32.42
2022-11-14T05:38:04.987Z,34.08
2022-11-14T05:40:53.373Z,33.80
2022-11-14T05:43:43.569Z,33.70
2022-11-14T05:46:31.917Z,33.13
2022-11-14T05:49:22.119Z,35.17
2022-11-14T05:52:10.634Z,25.48
2022-11-14T05:54:58.961Z,33.97
2022-11-14T05:57:47.596Z,35.05
2022-11-14T06:00:44.305Z,34.63
2022-11-14T06:03:39.028Z,36.03
2022-11-14T06:06:27.345Z,35.25
2022-11-14T06:09:15.743Z,34.80
2022-11-14T06:12:06.291Z,35.35
2022-11-14T06:14:54.649Z,32.88
2022-11-14T06:17:44.366Z,33.70
2022-11-14T06:20:32.708Z,32.70
2022-11-14T06:23:24.719Z,31.52
2022-11-14T06:26:20.908Z,30.55
2022-11-14T06:29:10.883Z,31.52
2022-11-14T06:31:59.263Z,31.35
2022-11-14T06:34:48.952Z,30.80
2022-11-14T06:37:37.657Z,30.90
2022-11-14T06:40:25.995Z,30.55
2022-11-14T06:43:14.349Z,29.38
2022-11-14T06:46:02.786Z,30.23
2022-11-14T06:48:52.446Z,29.33
2022-11-14T06:51:42.203Z,30.25
2022-11-14T06:54:30.516Z,30.30
2022-11-14T06:57:20.384Z,27.98
2022-11-14T07:00:10.111Z,29.58
2022-11-14T07:02:58.494Z,29.65
2022-11-14T07:05:46.881Z,29.73
2022-11-14T07:08:36.768Z,29.42
2022-11-14T07:11:29.493Z,31.30
2022-11-14T07:14:17.819Z,34.67
2022-11-14T07:17:06.134Z,34.40
2022-11-14T07:19:54.533Z,32.05
2022-11-14T07:22:42.876Z,30.13
2022-11-14T07:25:33.214Z,28.40
2022-11-14T07:28:21.659Z,28.75
2022-11-14T07:31:12.473Z,27.83
2022-11-14T07:34:00.798Z,26.92
2022-11-14T07:36:50.715Z,28.13
2022-11-14T07:39:39.059Z,28.65
2022-11-14T07:42:31.193Z,28.38
2022-11-14T07:45:20.070Z,29.65
2022-11-14T07:48:08.326Z,28.52
2022-11-14T07:50:59.766Z,28.52
2022-11-14T07:53:48.156Z,29.52
2022-11-14T07:56:36.491Z,28.13
2022-11-14T07:59:26.204Z,29.23
2022-11-14T08:02:15.400Z,28.13
2022-11-14T08:05:03.905Z,28.70
2022-11-14T08:07:52.615Z,28.80
2022-11-14T08:10:41.082Z,29.02
2022-11-14T08:13:32.585Z,28.60
2022-11-14T08:16:23.087Z,30.35
2022-11-14T08:19:11.471Z,27.85
2022-11-14T08:21:59.804Z,28.10
2022-11-14T08:24:48.191Z,29.45
2022-11-14T08:27:36.762Z,28.17
2022-11-14T08:30:25.099Z,28.35
2022-11-14T08:33:14.778Z,29.02
2022-11-14T08:36:03.853Z,30.35
2022-11-14T08:38:54.217Z,27.63
2022-11-14T08:41:44.616Z,28.23
2022-11-14T08:44:32.924Z,28.00
2022-11-14T08:47:21.556Z,26.95
2022-11-14T08:50:11.464Z,28.55
2022-11-14T08:52:59.838Z,27.73
2022-11-14T08:55:48.777Z,27.23
2022-11-14T08:58:37.205Z,26.65
2022-11-14T09:01:25.570Z,27.58
2022-11-14T09:04:14.091Z,26.98
2022-11-14T09:07:03.905Z,26.33
2022-11-14T09:09:52.239Z,26.30
2022-11-14T09:12:40.615Z,26.30
2022-11-14T09:15:29.822Z,27.85
2022-11-14T09:18:18.226Z,25.10
2022-11-14T09:21:09.014Z,26.70
2022-11-14T09:24:01.851Z,27.00
2022-11-14T09:26:56.612Z,26.63
2022-11-14T09:29:45.737Z,25.63
2022-11-14T09:32:34.094Z,25.40
2022-11-14T09:35:22.432Z,24.60
2022-11-14T09:38:12.712Z,26.02
2022-11-14T09:41:11.621Z,24.80
2022-11-14T09:44:23.319Z,25.20
2022-11-14T09:47:20.212Z,24.83
2022-11-14T09:50:15.115Z,24.95
2022-11-14T09:53:07.860Z,25.55
2022-11-14T09:55:56.225Z,24.83
2022-11-14T09:58:45.937Z,24.23
2022-11-14T10:01:45.595Z,24.70
2022-11-14T10:04:48.516Z,25.13
2022-11-14T10:07:47.911Z,22.90
2022-11-14T10:10:51.135Z,23.90
2022-11-14T10:14:09.341Z,23.52
2022-11-14T10:17:10.755Z,23.65
2022-11-14T10:20:08.587Z,23.17
2022-11-14T10:23:11.285Z,23.02
2022-11-14T10:26:10.657Z,24.02
2022-11-14T10:29:15.540Z,22.77
2022-11-14T10:32:11.893Z,21.92
2022-11-14T10:35:05.902Z,23.00
2022-11-14T10:38:02.311Z,22.00
2022-11-14T10:40:53.922Z,21.05
2022-11-14T10:43:47.787Z,22.05
2022-11-14T10:46:40.494Z,22.60
2022-11-14T10:49:36.086Z,21.85
2022-11-14T10:52:34.791Z,20.90
2022-11-14T10:55:49.629Z,20.67
2022-11-14T10:58:46.718Z,21.48
2022-11-14T11:01:40.420Z,21.10
2022-11-14T11:04:32.583Z,20.20
2022-11-14T11:07:43.335Z,19.95
2022-11-14T11:10:50.841Z,19.48
2022-11-14T11:13:49.362Z,20.30
2022-11-14T11:16:39.132Z,18.60
2022-11-14T11:19:30.953Z,18.83
2022-11-14T11:22:31.883Z,19.38
2022-11-14T11:25:28.966Z,18.23
2022-11-14T11:28:19.721Z,19.58
2022-11-14T11:31:10.125Z,17.20
2022-11-14T11:34:04.756Z,18.90
2022-11-14T11:36:58.414Z,18.70
2022-11-14T11:39:50.324Z,19.88
2022-11-14T11:43:31.942Z,17.95
2022-11-14T11:45:54.658Z,18.90
2022-11-14T11:48:43.113Z,18.92
2022-11-14T11:51:40.759Z,18.92
2022-11-14T11:54:34.459Z,19.33
2022-11-14T11:57:29.712Z,17.45
2022-11-14T12:00:20.512Z,18.42
2022-11-14T12:03:19.807Z,19.05
2022-11-14T12:06:16.636Z,17.70
2022-11-14T12:09:15.745Z,19.65
2022-11-14T12:12:09.319Z,19.58
2022-11-14T12:15:19.224Z,18.70
2022-11-14T12:18:45.495Z,18.55
2022-11-14T12:21:58.782Z,18.27
2022-11-14T12:25:19.442Z,17.75
2022-11-14T12:28:28.069Z,19.27
2022-11-14T12:31:18.479Z,17.08
2022-11-14T12:34:15.683Z,17.15
2022-11-14T12:37:10.649Z,16.85
2022-11-14T12:40:03.210Z,16.38
2022-11-14T12:42:51.687Z,16.35
2022-11-14T12:46:00.757Z,16.60
2022-11-14T12:48:49.468Z,16.20
2022-11-14T12:51:52.044Z,15.77
2022-11-14T12:54:44.663Z,17.98
2022-11-14T12:57:49.182Z,19.73
2022-11-14T13:00:47.990Z,16.02
2022-11-14T13:03:54.075Z,16.90
2022-11-14T13:06:53.232Z,16.58
2022-11-14T13:10:04.773Z,16.05
2022-11-14T13:13:37.525Z,16.08
2022-11-14T13:16:45.622Z,15.55
2022-11-14T13:19:51.372Z,14.93
2022-11-14T13:22:41.712Z,14.75
2022-11-14T13:25:30.295Z,13.75
2022-11-14T13:28:49.486Z,15.45
2022-11-14T13:31:47.896Z,14.65
2022-11-14T13:34:47.308Z,13.85
2022-11-14T13:37:54.332Z,14.60
2022-11-14T13:40:50.494Z,13.82
2022-11-14T13:43:56.629Z,14.63
2022-11-14T13:47:02.146Z,14.88
2022-11-14T13:50:09.997Z,14.80
2022-11-14T13:52:58.765Z,14.85
2022-11-14T13:55:56.397Z,14.00
2022-11-14T13:59:10.860Z,15.48
2022-11-14T14:02:37.194Z,15.18
2022-11-14T14:05:33.399Z,15.15
2022-11-14T14:08:33.535Z,15.98
2022-11-14T14:11:51.246Z,16.33
2022-11-14T14:15:07.408Z,16.77
2022-11-14T14:18:05.392Z,16.58
2022-11-14T14:21:03.975Z,16.73
2022-11-14T14:24:03.581Z,16.08
2022-11-14T14:27:02.543Z,16.83
2022-11-14T14:30:00.504Z,16.02
2022-11-14T14:33:04.204Z,18.30
2022-11-14T14:35:54.203Z,16.63
2022-11-14T14:38:42.666Z,18.45
2022-11-14T14:41:33.381Z,17.67
2022-11-14T14:44:26.410Z,18.52
2022-11-14T14:47:30.237Z,18.00
2022-11-14T14:50:22.203Z,17.48
2022-11-14T14:53:21.302Z,18.92
2022-11-14T14:56:21.140Z,17.13
2022-11-14T14:59:19.951Z,17.95
2022-11-14T15:02:14.707Z,17.92
2022-11-14T15:05:04.777Z,18.10
2022-11-14T15:07:55.822Z,17.95
2022-11-14T15:13:33.986Z,17.67
2022-11-14T15:16:22.954Z,17.83
2022-11-14T15:19:16.086Z,19.10
2022-11-14T15:22:21.437Z,19.10
2022-11-14T15:25:20.621Z,18.10
2022-11-14T15:28:16.893Z,19.17
2022-11-14T15:31:06.555Z,18.95
2022-11-14T15:34:06.967Z,18.85
2022-11-14T15:37:24.375Z,19.65
2022-11-14T15:40:18.723Z,19.98
2022-11-14T15:43:38.857Z,19.33
2022-11-14T15:46:43.942Z,19.27
2022-11-14T15:49:32.429Z,20.40
2022-11-14T15:52:25.685Z,20.95
2022-11-14T15:55:16.622Z,21.55
2022-11-14T15:58:27.117Z,22.40
2022-11-14T16:01:19.659Z,21.80
2022-11-14T16:04:11.799Z,21.83
2022-11-14T16:07:00.234Z,23.13
2022-11-14T16:09:50.498Z,21.15
2022-11-14T16:12:38.873Z,21.70
2022-11-14T16:15:27.235Z,22.02
2022-11-14T16:18:15.703Z,21.95
2022-11-14T16:21:04.078Z,21.67
2022-11-14T16:23:52.719Z,21.52
2022-11-14T16:26:42.395Z,23.00
2022-11-14T16:29:30.937Z,24.98
2022-11-14T16:32:19.294Z,26.75
2022-11-14T16:35:11.467Z,26.42
2022-11-14T16:37:59.844Z,29.13
2022-11-14T16:40:48.269Z,25.17
2022-11-14T16:43:38.185Z,22.80
2022-11-14T16:46:26.623Z,24.60
2022-11-14T16:49:16.288Z,22.88
2022-11-14T16:52:08.525Z,25.77
2022-11-14T16:54:57.001Z,28.10
2022-11-14T16:57:45.442Z,28.58
2022-11-14T17:00:35.849Z,26.65
2022-11-14T17:03:24.237Z,26.20
2022-11-14T17:06:12.586Z,25.90
2022-11-14T17:09:01.721Z,26.42
2022-11-14T17:11:50.041Z,25.73
2022-11-14T17:14:38.409Z,27.10
2022-11-14T17:17:28.090Z,25.95
2022-11-14T17:20:16.908Z,27.42
2022-11-14T17:23:05.340Z,27.83
2022-11-14T17:25:53.832Z,24.65
2022-11-14T17:28:43.318Z,24.05
2022-11-14T17:31:36.566Z,23.10
2022-11-14T17:34:27.631Z,25.48
2022-11-14T17:37:16.362Z,24.38
2022-11-14T17:40:05.152Z,24.98
2022-11-14T17:42:54.376Z,23.58
2022-11-14T17:45:42.772Z,23.83
2022-11-14T17:48:31.673Z,22.38
2022-11-14T17:51:21.510Z,23.25
2022-11-14T17:54:09.991Z,24.30
2022-11-14T17:56:59.021Z,24.10
2022-11-14T17:59:48.033Z,22.25
2022-11-14T18:02:36.394Z,23.17
2022-11-14T18:05:24.841Z,23.58
2022-11-14T18:08:15.092Z,23.95
2022-11-14T18:11:04.062Z,23.90
2022-11-14T18:13:56.117Z,24.67
2022-11-14T18:17:11.309Z,23.42
2022-11-14T18:19:52.941Z,23.33
2022-11-14T18:22:42.016Z,23.65
2022-11-14T18:25:31.991Z,23.33
2022-11-14T18:28:20.340Z,25.10
2022-11-14T18:31:10.873Z,23.63
2022-11-14T18:33:59.802Z,24.38
2022-11-14T18:36:48.387Z,33.90
2022-11-14T18:39:36.741Z,37.75
2022-11-14T18:42:26.456Z,32.58
2022-11-14T18:45:14.947Z,27.73
2022-11-14T18:48:03.344Z,26.35
2022-11-14T18:50:51.748Z,24.50
2022-11-14T18:53:40.800Z,24.02
2022-11-14T18:56:29.153Z,23.88
2022-11-14T18:59:18.994Z,24.33
2022-11-14T19:02:07.666Z,23.20
2022-11-14T19:04:56.057Z,23.58
2022-11-14T19:07:44.374Z,24.05
2022-11-14T19:10:32.669Z,23.58
2022-11-14T19:13:25.132Z,23.65
2022-11-14T19:16:14.799Z,24.00
2022-11-14T19:19:03.989Z,23.92
2022-11-14T19:21:53.035Z,23.42
2022-11-14T19:24:44.815Z,22.50
2022-11-14T19:27:33.118Z,22.92
2022-11-14T19:30:21.453Z,22.70
2022-11-14T19:33:11.487Z,21.10
2022-11-14T19:36:05.577Z,21.30
2022-11-14T19:38:55.478Z,20.35
2022-11-14T19:41:43.785Z,19.42
2022-11-14T19:44:32.232Z,20.10
2022-11-14T19:47:20.540Z,20.30
2022-11-14T19:50:11.414Z,19.23
2022-11-14T19:53:00.032Z,20.20
2022-11-14T19:55:48.395Z,20.48
2022-11-14T19:58:37.629Z,19.63
2022-11-14T20:01:28.072Z,20.10
2022-11-14T20:04:16.482Z,19.90
2022-11-14T20:07:06.278Z,19.42
2022-11-14T20:09:54.708Z,19.00
2022-11-14T20:12:43.101Z,21.05
2022-11-14T20:15:31.509Z,18.95
2022-11-14T20:18:19.990Z,18.92
2022-11-14T20:21:12.601Z,18.20
2022-11-14T20:24:02.608Z,18.98
2022-11-14T20:26:51.000Z,18.70
2022-11-14T20:29:39.644Z,18.48
2022-11-14T20:32:27.986Z,17.40
2022-11-14T20:35:16.448Z,17.63
2022-11-14T20:38:05.278Z,17.80
2022-11-14T20:40:58.903Z,17.90
2022-11-14T20:43:47.288Z,18.33
2022-11-14T20:46:35.662Z,18.17
2022-11-14T20:49:23.977Z,17.67
2022-11-14T20:52:12.341Z,17.25
2022-11-14T20:55:00.723Z,17.75
2022-11-14T20:57:50.487Z,18.45
2022-11-14T21:00:38.846Z,17.45
2022-11-14T21:03:27.825Z,17.45
2022-11-14T21:06:17.520Z,18.30
2022-11-14T21:09:05.924Z,18.52
2022-11-14T21:11:54.199Z,18.65
2022-11-14T21:14:43.887Z,18.10
2022-11-14T21:17:32.513Z,18.45
2022-11-14T21:20:20.821Z,17.25
2022-11-14T21:23:09.157Z,17.92
2022-11-14T21:26:08.881Z,17.45
2022-11-14T21:28:59.286Z,17.88
2022-11-14T21:31:49.017Z,18.23
2022-11-14T21:34:37.378Z,17.00
2022-11-14T21:37:25.701Z,17.23
2022-11-14T21:40:14.298Z,17.77
2022-11-14T21:43:02.646Z,17.20
2022-11-14T21:45:59.007Z,18.23
2022-11-14T21:48:50.010Z,17.77
2022-11-14T21:51:38.467Z,17.83
2022-11-14T21:54:26.815Z,17.27
2022-11-14T21:57:15.131Z,17.85
2022-11-14T22:00:04.099Z,17.27
2022-11-14T22:03:09.826Z,16.45
2022-11-14T22:05:59.578Z,16.90
2022-11-14T22:08:48.326Z,17.27
2022-11-14T22:11:39.176Z,17.75
2022-11-14T22:14:27.960Z,16.80
2022-11-14T22:17:16.273Z,16.27
2022-11-14T22:20:04.900Z,16.77
2022-11-14T22:22:56.378Z,17.17
2022-11-14T22:25:44.681Z,15.98
2022-11-14T22:28:33.023Z,15.90
2022-11-14T22:31:23.101Z,15.93
2022-11-14T22:34:12.101Z,16.02
2022-11-14T22:37:00.478Z,16.10
2022-11-14T22:39:50.434Z,17.38
2022-11-14T22:42:38.765Z,16.77
2022-11-14T22:45:27.089Z,16.13
2022-11-14T22:48:15.390Z,16.17
2022-11-14T22:51:05.784Z,16.30
2022-11-14T22:53:55.680Z,15.77
2022-11-14T22:56:45.447Z,16.50
2022-11-14T22:59:33.784Z,16.02
2022-11-14T23:02:22.121Z,17.30
2022-11-14T23:05:10.794Z,16.98
2022-11-14T23:07:59.143Z,16.20
2022-11-14T23:10:48.615Z,17.48
2022-11-14T23:13:42.662Z,16.60
2022-11-14T23:16:33.307Z,16.33
2022-11-14T23:19:22.082Z,15.98
2022-11-14T23:22:10.440Z,16.73
2022-11-14T23:24:58.787Z,16.15
2022-11-14T23:27:47.158Z,16.85
2022-11-14T23:30:37.002Z,16.73
2022-11-14T23:33:25.580Z,16.77
2022-11-14T23:36:14.255Z,16.67
2022-11-14T23:39:02.591Z,16.73
2022-11-14T23:41:51.157Z,17.05
2022-11-14T23:44:39.451Z,16.20
2022-11-14T23:47:29.118Z,16.83
2022-11-14T23:50:18.172Z,17.60
2022-11-14T23:53:06.475Z,16.60
2022-11-14T23:55:55.783Z,17.40
2022-11-14T23:58:44.371Z,15.20
